Time;durP1;ratioP1;P1;durP2;ratioP2;P2;SDS_P1;SDS_P2;PMS_P1;PMS_P2;Temp;Humidity;BMP_temperature;BMP_pressure;BME280_temperature;BME280_humidity;BME280_pressure;Samples;Min_cycle;Max_cycle;Signal;HPM_P1;HPM_P2
2022/10/19 00:01:04;;;;;;;;;12.00;11.00;;;;;18.22;93.86;102041.59;5074227;28;46210;-70
2022/10/19 00:03:30;;;;;;;;;8.50;8.50;;;;;18.21;93.55;102031.78;5110323;27;45586;-70
2022/10/19 00:05:56;;;;;;;;;10.75;9.75;;;;;18.20;93.51;102022.81;5077618;27;45416;-70
2022/10/19 00:08:21;;;;;;;;;7.25;7.25;;;;;18.19;93.45;102018.38;5077569;27;45440;-70
2022/10/19 00:10:46;;;;;;;;;8.75;8.75;;;;;18.18;93.54;102013.09;5076097;28;45456;-71
2022/10/19 00:13:12;;;;;;;;;11.50;11.50;;;;;18.18;93.53;102007.69;5077403;27;45623;-70
2022/10/19 00:15:39;;;;;;;;;7.75;7.75;;;;;17.97;93.54;101983.97;5077719;27;45453;-71
2022/10/19 00:18:06;;;;;;;;;10.75;10.75;;;;;18.00;93.41;101983.72;5076202;27;45438;-71
2022/10/19 00:20:32;;;;;;;;;11.25;10.00;;;;;18.08;93.24;101997.53;5057005;28;45467;-70
2022/10/19 00:22:57;;;;;;;;;11.50;11.25;;;;;18.11;93.58;102004.56;5056891;28;45364;-71
2022/10/19 00:25:22;;;;;;;;;10.00;9.50;;;;;18.11;93.63;102007.25;5057645;28;45509;-71
2022/10/19 00:27:48;;;;;;;;;11.25;11.25;;;;;18.09;93.24;102006.53;5057188;28;45477;-70
2022/10/19 00:30:13;;;;;;;;;12.00;12.00;;;;;17.66;93.23;101937.50;5060175;28;46309;-71
2022/10/19 00:32:38;;;;;;;;;13.00;11.25;;;;;18.08;93.48;101999.38;5075508;28;46136;-72
2022/10/19 00:35:04;;;;;;;;;11.00;11.00;;;;;18.04;93.34;101998.72;5077472;27;45752;-72
2022/10/19 00:37:29;;;;;;;;;9.75;9.00;;;;;18.00;93.57;101999.94;5077359;27;45484;-71
2022/10/19 00:39:55;;;;;;;;;10.75;10.75;;;;;18.04;93.58;101985.22;5074631;27;45427;-71
2022/10/19 00:42:20;;;;;;;;;9.50;9.50;;;;;17.93;93.38;101960.84;5076844;28;45420;-71
2022/10/19 00:44:45;;;;;;;;;10.50;9.50;;;;;18.02;93.23;101976.41;5077248;27;45630;-71
2022/10/19 00:47:11;;;;;;;;;12.50;10.50;;;;;18.02;93.11;101975.50;5076919;28;45512;-71
2022/10/19 00:49:41;;;;;;;;;10.75;10.75;;;;;17.63;93.20;101903.53;5076970;27;47271;-72
2022/10/19 00:52:10;;;;;;;;;9.50;8.50;;;;;17.98;93.36;101966.78;5077420;27;45348;-72
2022/10/19 00:54:38;;;;;;;;;11.25;10.00;;;;;17.75;92.75;101928.78;5077201;28;45422;-72
2022/10/19 00:57:05;;;;;;;;;13.00;12.00;;;;;17.95;93.04;101962.47;5077663;27;45634;-71
2022/10/19 00:59:31;;;;;;;;;11.00;8.75;;;;;17.85;93.12;101947.00;5077245;27;45375;-71
2022/10/19 01:01:58;;;;;;;;;9.00;9.00;;;;;17.93;93.26;101960.84;5104016;27;45444;-71
2022/10/19 01:04:25;;;;;;;;;9.50;9.50;;;;;17.41;93.38;101879.91;5076585;28;45456;-71
2022/10/19 01:06:52;;;;;;;;;9.25;9.25;;;;;17.91;93.34;101958.25;5076290;28;45423;-71
2022/10/19 01:09:18;;;;;;;;;8.50;8.50;;;;;17.92;93.15;101951.03;5075530;28;47374;-71
2022/10/19 01:12:00;;;;;;;;;9.75;9.00;;;;;17.89;92.94;101951.22;5076592;28;45374;-70
2022/10/19 01:15:07;;;;;;;;;7.00;6.00;;;;;17.86;93.33;101954.16;5075623;28;45321;-71
2022/10/19 01:17:59;;;;;;;;;7.00;7.00;;;;;17.83;93.70;101961.47;5053335;28;45594;-69
2022/10/19 01:20:39;;;;;;;;;8.00;6.50;;;;;17.82;93.58;101961.59;5053434;28;46514;-70
2022/10/19 01:23:14;;;;;;;;;6.00;6.00;;;;;17.77;93.32;101959.19;5043649;28;45642;-69
2022/10/19 01:25:48;;;;;;;;;6.00;6.00;;;;;17.76;93.85;101957.50;5033536;28;45465;-69
2022/10/19 01:28:31;;;;;;;;;5.25;5.25;;;;;17.75;93.73;101961.16;5033810;28;45344;-69
2022/10/19 01:31:08;;;;;;;;;6.25;6.25;;;;;17.15;93.39;101857.44;5033507;28;46365;-71
2022/10/19 01:33:52;;;;;;;;;8.00;6.75;;;;;17.76;93.60;101957.50;5053629;28;45537;-70
2022/10/19 01:36:39;;;;;;;;;5.00;4.50;;;;;17.51;93.58;101911.63;5054025;28;45699;-70
2022/10/19 01:39:16;;;;;;;;;7.75;5.75;;;;;17.75;93.49;101947.66;5053546;28;45431;-70
2022/10/19 01:42:00;;;;;;;;;5.75;5.00;;;;;17.76;93.61;101953.91;5036578;28;45466;-71
2022/10/19 01:44:37;;;;;;;;;7.00;7.00;;;;;17.74;93.62;101943.22;5053745;28;45301;-71
2022/10/19 01:47:10;;;;;;;;;6.00;6.00;;;;;17.72;93.28;101941.59;5053356;28;45491;-71
2022/10/19 01:49:58;;;;;;;;;5.00;5.00;;;;;17.71;93.81;101937.19;5054085;28;45312;-71
2022/10/19 01:52:25;;;;;;;;;6.50;6.50;;;;;17.72;93.78;101937.09;5053765;28;46297;-71
2022/10/19 01:54:56;;;;;;;;;6.00;6.00;;;;;17.71;93.60;101932.66;5072625;28;45415;-71
2022/10/19 01:57:32;;;;;;;;;7.50;6.75;;;;;17.70;93.26;101930.06;5076081;27;45372;-72
2022/10/19 01:59:57;;;;;;;;;6.00;6.00;;;;;17.68;93.63;101930.19;5055310;28;45443;-72
2022/10/19 02:02:25;;;;;;;;;8.50;4.75;;;;;17.68;93.39;101921.22;5061619;27;46030;-72
2022/10/19 02:04:54;;;;;;;;;5.33;5.33;;;;;17.26;93.52;101846.78;5096585;27;45416;-71
2022/10/19 02:07:21;;;;;;;;;5.00;4.00;;;;;17.65;93.45;101903.41;5096345;27;45696;-71
2022/10/19 02:09:47;;;;;;;;;4.75;4.75;;;;;17.64;93.47;101904.41;5096431;27;45443;-71
2022/10/19 02:12:14;;;;;;;;;5.00;5.00;;;;;17.63;93.44;101906.22;5095936;27;45433;-71
2022/10/19 02:14:45;;;;;;;;;6.00;6.00;;;;;17.63;93.23;101902.66;5089262;27;45536;-71
2022/10/19 02:17:14;;;;;;;;;6.00;6.00;;;;;17.63;93.62;101891.88;5075831;27;45302;-71
2022/10/19 02:19:40;;;;;;;;;8.50;7.00;;;;;17.65;93.52;101896.19;5075886;27;45491;-71
2022/10/19 02:22:06;;;;;;;;;6.00;6.00;;;;;17.62;92.80;101892.84;5075441;27;46234;-70
2022/10/19 02:24:31;;;;;;;;;6.25;6.00;;;;;17.58;93.14;101875.16;5075432;28;45454;-70
2022/10/19 02:26:59;;;;;;;;;5.75;4.75;;;;;17.60;93.24;101884.84;5075508;27;45544;-70
2022/10/19 02:29:25;;;;;;;;;7.00;7.00;;;;;17.57;93.11;101881.50;5075552;27;45467;-71
2022/10/19 02:31:50;;;;;;;;;7.75;6.75;;;;;17.59;93.08;101871.47;5075307;28;45442;-70
2022/10/19 02:34:16;;;;;;;;;5.75;5.75;;;;;17.55;93.13;101875.38;5075631;27;45320;-71
2022/10/19 02:36:41;;;;;;;;;6.50;6.50;;;;;17.35;93.17;101837.19;5075847;28;45395;-71
2022/10/19 02:39:07;;;;;;;;;6.25;5.00;;;;;17.36;93.44;101827.28;5075756;27;45400;-71
2022/10/19 02:41:48;;;;;;;;;7.00;5.75;;;;;17.55;93.22;101859.19;5075449;28;45658;-71
2022/10/19 02:44:19;;;;;;;;;6.00;4.75;;;;;17.21;93.36;101810.31;5075212;28;45373;-71
2022/10/19 02:46:51;;;;;;;;;6.00;5.50;;;;;17.53;93.34;101858.41;5075700;27;45430;-70
2022/10/19 02:49:17;;;;;;;;;8.00;7.50;;;;;17.51;92.77;101855.84;5075129;28;45290;-70
2022/10/19 02:51:56;;;;;;;;;7.75;7.00;;;;;17.52;93.23;101856.69;5074893;27;46364;-70
2022/10/19 02:54:22;;;;;;;;;4.00;4.00;;;;;17.55;93.50;101853.78;5075214;28;45579;-71
2022/10/19 02:56:48;;;;;;;;;6.75;5.75;;;;;17.56;93.25;101850.97;5075332;28;45349;-71
2022/10/19 02:59:13;;;;;;;;;5.25;5.25;;;;;17.56;93.23;101847.41;5073451;28;45562;-71
2022/10/19 03:01:38;;;;;;;;;5.75;5.75;;;;;17.56;93.10;101852.78;5074952;28;46110;-71
2022/10/19 03:04:04;;;;;;;;;5.50;5.50;;;;;17.54;93.13;101852.91;5074468;27;45369;-71
2022/10/19 03:06:29;;;;;;;;;9.00;6.00;;;;;17.09;92.65;101772.47;5073985;28;45302;-70
2022/10/19 03:08:54;;;;;;;;;6.00;5.00;;;;;17.56;93.05;101848.28;5073642;28;45545;-71
2022/10/19 03:11:20;;;;;;;;;8.50;7.00;;;;;17.57;92.24;101836.53;5074316;28;47074;-71
2022/10/19 03:13:45;;;;;;;;;4.25;4.00;;;;;17.57;93.02;101841.91;5074337;27;45640;-71
2022/10/19 03:16:12;;;;;;;;;9.00;7.25;;;;;17.56;92.79;101833.91;5074888;28;45434;-71
2022/10/19 03:18:37;;;;;;;;;5.75;5.75;;;;;17.38;92.81;101799.19;5075002;27;45382;-72
2022/10/19 03:21:11;;;;;;;;;6.50;6.50;;;;;17.53;93.36;101823.34;5074628;27;45921;-71
2022/10/19 03:23:37;;;;;;;;;6.00;4.25;;;;;17.53;92.74;101823.34;5074867;28;45564;-71
2022/10/19 03:26:04;;;;;;;;;6.25;6.25;;;;;17.52;93.17;101827.00;5074465;27;45403;-71
2022/10/19 03:28:30;;;;;;;;;4.25;4.25;;;;;17.52;92.95;101822.50;5074357;28;45424;-71
2022/10/19 03:30:55;;;;;;;;;6.25;5.00;;;;;17.49;92.99;101818.19;5074181;28;47187;-72
2022/10/19 03:33:21;;;;;;;;;6.00;6.00;;;;;17.52;93.08;101822.50;5074399;28;45408;-72
2022/10/19 03:35:47;;;;;;;;;4.00;4.00;;;;;17.52;92.89;101816.22;5074724;27;45311;-72
2022/10/19 03:38:12;;;;;;;;;5.00;5.00;;;;;17.50;93.15;101816.34;5076591;28;45363;-72
2022/10/19 03:40:37;;;;;;;;;5.75;5.75;;;;;17.49;92.98;101812.78;5078021;28;45491;-72
2022/10/19 03:43:03;;;;;;;;;4.25;4.25;;;;;17.47;93.06;101805.78;5078093;27;45388;-72
2022/10/19 03:45:28;;;;;;;;;4.75;4.75;;;;;17.47;93.24;101801.22;5078236;28;45305;-70
2022/10/19 03:47:53;;;;;;;;;5.00;4.50;;;;;17.48;93.00;101804.81;5077885;28;45343;-72
2022/10/19 03:50:20;;;;;;;;;4.00;4.00;;;;;17.46;93.25;101801.34;5077999;27;45621;-71
2022/10/19 03:52:45;;;;;;;;;4.75;4.75;;;;;16.79;93.03;101692.81;5077959;27;45298;-72
2022/10/19 03:55:10;;;;;;;;;4.75;4.75;;;;;17.40;93.83;101797.25;5076582;28;45668;-71
2022/10/19 03:57:36;;;;;;;;;5.00;4.00;;;;;17.31;93.80;101784.44;5077711;28;45379;-72
2022/10/19 04:00:03;;;;;;;;;6.00;6.00;;;;;17.36;93.74;101794.91;5077392;27;45987;-72
2022/10/19 04:02:29;;;;;;;;;5.00;5.00;;;;;17.24;94.12;101775.06;5077768;28;45399;-72
2022/10/19 04:04:54;;;;;;;;;6.00;6.00;;;;;17.30;94.20;101805.16;5077977;27;45600;-71
2022/10/19 04:07:20;;;;;;;;;6.50;6.50;;;;;17.27;94.37;101793.72;5077815;27;45479;-71
2022/10/19 04:09:45;;;;;;;;;4.50;4.50;;;;;17.29;94.65;101798.03;5077770;27;47268;-70
2022/10/19 04:12:10;;;;;;;;;7.00;7.00;;;;;17.31;94.45;101801.47;5077556;27;45382;-71
2022/10/19 04:14:37;;;;;;;;;7.50;7.00;;;;;17.30;94.41;101798.88;5077546;27;45983;-71
2022/10/19 04:17:03;;;;;;;;;6.25;5.50;;;;;17.29;94.64;101802.56;5078017;27;45405;-71
2022/10/19 04:19:30;;;;;;;;;6.75;5.00;;;;;17.29;94.52;101797.19;5077739;27;46286;-71
2022/10/19 04:21:55;;;;;;;;;5.25;5.25;;;;;17.29;94.63;101803.44;5077862;27;45357;-71
2022/10/19 04:24:21;;;;;;;;;8.00;8.00;;;;;17.29;94.71;101799.88;5078565;28;45234;-71
2022/10/19 04:26:52;;;;;;;;;6.00;6.00;;;;;17.29;94.87;101808.81;5077718;28;45515;-71
2022/10/19 04:29:19;;;;;;;;;8.00;5.25;;;;;17.27;94.54;101796.41;5077174;27;46103;-72
2022/10/19 04:31:47;;;;;;;;;8.25;5.75;;;;;17.32;94.29;101810.44;5076154;27;45547;-71
2022/10/19 04:34:12;;;;;;;;;5.50;5.50;;;;;17.31;94.54;101804.16;5077126;28;45562;-71
2022/10/19 04:36:37;;;;;;;;;7.25;6.25;;;;;17.32;94.23;101807.75;5076958;28;45258;-71
2022/10/19 04:39:03;;;;;;;;;7.00;6.50;;;;;17.32;94.12;101807.75;5077811;27;48275;-70
2022/10/19 04:41:29;;;;;;;;;7.25;7.25;;;;;16.92;93.99;101740.47;5056562;28;45508;-71
2022/10/19 04:43:57;;;;;;;;;9.00;8.50;;;;;17.19;94.27;101774.53;5075195;28;45381;-71
2022/10/19 04:46:23;;;;;;;;;9.50;7.50;;;;;17.29;94.29;101795.34;5076896;27;45360;-71
2022/10/19 04:48:49;;;;;;;;;6.50;6.50;;;;;17.29;94.11;101784.56;5075750;27;46526;-71
2022/10/19 04:51:15;;;;;;;;;8.00;7.00;;;;;17.29;94.41;101783.69;5077046;27;45357;-71
2022/10/19 04:53:42;;;;;;;;;6.25;6.25;;;;;17.26;94.52;101779.38;5077138;28;45360;-72
2022/10/19 04:56:15;;;;;;;;;7.75;7.75;;;;;17.26;94.22;101767.72;5076616;28;45556;-72
2022/10/19 04:58:40;;;;;;;;;6.00;6.00;;;;;17.25;94.33;101766.88;5076877;27;45898;-72
2022/10/19 05:01:09;;;;;;;;;7.00;7.00;;;;;17.23;94.31;101762.56;5077144;28;45496;-72
2022/10/19 05:03:35;;;;;;;;;5.75;5.25;;;;;17.22;94.47;101758.13;5077775;28;45405;-72
2022/10/19 05:06:00;;;;;;;;;8.00;6.75;;;;;17.22;94.67;101752.72;5077817;28;45549;-72
2022/10/19 05:08:25;;;;;;;;;9.25;5.75;;;;;17.20;94.63;101749.28;5056874;28;45383;-72
2022/10/19 05:10:51;;;;;;;;;7.75;7.75;;;;;17.17;94.39;101739.59;5056939;28;45441;-71
2022/10/19 05:13:16;;;;;;;;;8.50;8.50;;;;;17.09;94.76;101744.69;5056883;28;45426;-71
2022/10/19 05:15:42;;;;;;;;;8.25;8.25;;;;;17.11;95.21;101743.59;5056276;28;45415;-71
2022/10/19 05:18:07;;;;;;;;;7.25;7.25;;;;;17.11;95.31;101743.59;5054554;28;47209;-71
2022/10/19 05:20:32;;;;;;;;;10.50;9.50;;;;;17.06;95.36;101737.66;5036536;28;45374;-72
2022/10/19 05:22:57;;;;;;;;;8.00;8.00;;;;;16.75;95.11;101685.03;5036498;28;45357;-72
2022/10/19 05:25:23;;;;;;;;;8.50;5.75;;;;;17.09;95.41;101744.69;5036810;28;45366;-72
2022/10/19 05:27:52;;;;;;;;;8.00;8.00;;;;;17.10;94.85;101744.56;5036344;28;47410;-72
2022/10/19 05:30:20;;;;;;;;;7.75;7.75;;;;;17.11;94.66;101742.72;5043381;28;45538;-71
2022/10/19 05:32:46;;;;;;;;;11.00;8.00;;;;;17.10;94.95;101739.16;5072108;28;45584;-71
2022/10/19 05:35:11;;;;;;;;;8.25;7.00;;;;;17.11;95.11;101735.50;5056393;28;45342;-71
2022/10/19 05:37:36;;;;;;;;;9.75;9.50;;;;;16.47;94.88;101620.50;5055838;28;47194;-71
2022/10/19 05:40:02;;;;;;;;;7.25;7.25;;;;;17.13;94.98;101730.84;5054547;28;45506;-71
2022/10/19 05:42:27;;;;;;;;;8.25;8.25;;;;;17.13;94.55;101730.00;5060662;28;45364;-69
2022/10/19 05:44:52;;;;;;;;;12.25;9.75;;;;;17.13;94.85;101719.22;5060302;28;45441;-75
2022/10/19 05:47:18;;;;;;;;;8.25;8.00;;;;;17.11;94.58;101722.03;5079596;28;46487;-75
2022/10/19 05:49:43;;;;;;;;;8.50;7.00;;;;;17.11;94.66;101713.94;5079363;28;45348;-75
2022/10/19 05:52:08;;;;;;;;;7.50;7.50;;;;;17.08;94.83;101714.13;5061392;28;45377;-75
2022/10/19 05:54:35;;;;;;;;;9.50;8.25;;;;;17.09;94.47;101713.19;5069355;28;45382;-75
2022/10/19 05:57:01;;;;;;;;;7.75;7.75;;;;;17.10;94.80;101711.31;5038926;28;45450;-76
2022/10/19 05:59:26;;;;;;;;;8.50;7.00;;;;;17.10;94.39;101714.03;5046221;28;45265;-75
2022/10/19 06:01:52;;;;;;;;;6.50;6.50;;;;;16.74;94.67;101654.53;5059130;28;45316;-75
2022/10/19 06:04:17;;;;;;;;;9.50;8.75;;;;;17.06;94.82;101713.41;5059159;28;45311;-76
2022/10/19 06:06:42;;;;;;;;;9.25;9.25;;;;;16.93;94.67;101689.16;5081016;27;46615;-77
2022/10/19 06:09:08;;;;;;;;;10.25;8.00;;;;;16.68;94.86;101655.00;5132416;27;45502;-75
2022/10/19 06:11:37;;;;;;;;;8.75;8.50;;;;;17.07;94.44;101716.94;5099878;27;45826;-75
2022/10/19 06:14:06;;;;;;;;;8.25;8.00;;;;;17.06;94.18;101723.31;5099352;27;45460;-74
2022/10/19 06:16:32;;;;;;;;;9.00;9.00;;;;;17.08;93.92;101724.06;5096362;27;47336;-74
2022/10/19 06:18:58;;;;;;;;;8.00;8.00;;;;;17.02;94.44;101714.59;5072855;28;45448;-74
2022/10/19 06:21:27;;;;;;;;;8.00;8.00;;;;;17.09;94.42;101732.03;5076657;27;46494;-74
2022/10/19 06:23:54;;;;;;;;;11.75;8.50;;;;;17.10;94.13;101719.41;5076808;27;45361;-74
2022/10/19 06:26:20;;;;;;;;;11.00;10.00;;;;;17.09;94.01;101718.56;5077237;27;45411;-74
2022/10/19 06:28:47;;;;;;;;;11.50;10.75;;;;;17.11;94.05;101719.34;5077618;27;45385;-74
2022/10/19 06:31:13;;;;;;;;;9.00;9.00;;;;;17.12;93.86;101714.78;5093025;27;45424;-74
2022/10/19 06:33:40;;;;;;;;;11.75;10.25;;;;;17.06;94.03;101713.41;5077571;28;45449;-74
2022/10/19 06:36:13;;;;;;;;;8.00;8.00;;;;;17.11;93.66;101715.75;5077601;27;46624;-74
2022/10/19 06:38:40;;;;;;;;;9.75;8.75;;;;;17.06;93.45;101720.59;5093419;27;45680;-73
2022/10/19 06:41:05;;;;;;;;;11.00;9.25;;;;;16.83;93.88;101671.91;5077823;27;45354;-73
2022/10/19 06:43:31;;;;;;;;;11.75;9.50;;;;;17.10;93.98;101716.72;5078134;27;45422;-74
2022/10/19 06:45:57;;;;;;;;;9.25;9.25;;;;;17.09;93.89;101713.19;5077573;27;45415;-74
2022/10/19 06:48:22;;;;;;;;;10.25;9.50;;;;;17.11;93.53;101695.06;5076412;28;45610;-74
2022/10/19 06:51:06;;;;;;;;;10.50;10.00;;;;;17.11;93.56;101696.88;5077117;27;45523;-74
2022/10/19 06:53:33;;;;;;;;;10.75;10.25;;;;;17.07;94.15;101677.41;5077677;27;45525;-74
2022/10/19 06:56:00;;;;;;;;;12.50;11.50;;;;;17.12;93.83;101699.47;5077522;27;45487;-75
2022/10/19 06:58:26;;;;;;;;;12.75;11.50;;;;;17.04;94.00;101684.84;5076005;28;45421;-74
2022/10/19 07:00:56;;;;;;;;;12.00;10.00;;;;;17.14;93.85;101710.13;5075991;28;45507;-74
2022/10/19 07:03:23;;;;;;;;;3.50;3.00;;;;;17.18;93.78;101713.47;5077204;27;45560;-74
2022/10/19 07:05:56;;;;;;;;;8.75;8.75;;;;;17.04;93.49;101677.59;5076954;27;45587;-74
2022/10/19 07:08:22;;;;;;;;;8.75;7.75;;;;;17.23;93.33;101698.69;5076813;27;45465;-74
2022/10/19 07:10:56;;;;;;;;;12.25;10.50;;;;;17.27;93.53;101696.66;5075342;28;45422;-75
2022/10/19 07:13:22;;;;;;;;;13.25;11.75;;;;;17.31;93.26;101699.00;5077484;27;45409;-75
2022/10/19 07:15:47;;;;;;;;;11.75;10.25;;;;;17.34;93.01;101694.38;5076954;27;46180;-74
2022/10/19 07:18:13;;;;;;;;;8.75;8.75;;;;;17.36;93.03;101681.66;5075620;28;45864;-74
2022/10/19 07:20:39;;;;;;;;;9.75;9.00;;;;;17.40;92.56;101684.00;5077502;27;45480;-74
2022/10/19 07:23:05;;;;;;;;;10.75;10.75;;;;;17.42;92.68;101681.19;5085699;27;45381;-74
2022/10/19 07:25:30;;;;;;;;;9.50;9.25;;;;;17.42;92.41;101676.63;5097337;27;47321;-74
2022/10/19 07:27:56;;;;;;;;;11.75;9.50;;;;;17.29;92.31;101652.41;5097159;27;45392;-74
2022/10/19 07:30:22;;;;;;;;;13.75;11.00;;;;;17.49;92.26;101672.53;5097523;27;45466;-74
2022/10/19 07:32:47;;;;;;;;;11.25;11.25;;;;;17.57;92.12;101673.78;5097325;27;45384;-75
2022/10/19 07:35:13;;;;;;;;;12.50;12.50;;;;;17.58;92.07;101676.38;5084898;27;46272;-74
2022/10/19 07:37:39;;;;;;;;;12.25;12.00;;;;;17.69;91.94;101683.66;5077120;27;45331;-74
2022/10/19 07:40:04;;;;;;;;;9.75;9.25;;;;;17.76;91.18;101689.44;5077797;27;45510;-75
2022/10/19 07:42:30;;;;;;;;;12.50;12.00;;;;;17.79;91.11;101690.09;5075909;28;45533;-74
2022/10/19 07:44:55;;;;;;;;;14.25;14.00;;;;;17.81;90.85;101688.16;5077388;27;53719;-74
2022/10/19 07:47:20;;;;;;;;;16.75;15.75;;;;;17.88;90.62;101676.88;5076681;27;45372;-74
2022/10/19 07:49:46;;;;;;;;;14.00;11.00;;;;;17.95;90.30;101678.16;5076333;27;45713;-73
2022/10/19 07:52:15;;;;;;;;;19.75;14.75;;;;;18.02;89.97;101684.84;5075890;27;45372;-74
2022/10/19 07:54:40;;;;;;;;;14.50;14.50;;;;;18.10;89.78;101684.25;5074342;28;47570;-73
2022/10/19 07:57:05;;;;;;;;;17.25;14.50;;;;;18.15;89.21;101677.53;5075437;27;45341;-73
2022/10/19 07:59:31;;;;;;;;;14.50;13.75;;;;;17.80;88.81;101604.59;5075549;27;45584;-73
2022/10/19 08:01:56;;;;;;;;;16.00;15.75;;;;;18.27;88.78;101681.09;5075117;28;45395;-73
2022/10/19 08:04:22;;;;;;;;;16.75;15.00;;;;;18.18;88.50;101653.94;5075384;28;45542;-73
2022/10/19 08:06:47;;;;;;;;;16.50;14.25;;;;;18.39;88.23;101671.19;5075316;28;45363;-73
2022/10/19 08:09:13;;;;;;;;;12.00;12.00;;;;;18.49;87.77;101676.75;5075416;28;45251;-73
2022/10/19 08:11:39;;;;;;;;;16.00;16.00;;;;;18.61;87.46;101678.50;5075779;28;45435;-73
2022/10/19 08:14:04;;;;;;;;;15.25;13.75;;;;;18.73;87.00;101683.88;5075285;28;45435;-73
2022/10/19 08:16:36;;;;;;;;;17.00;16.00;;;;;18.76;86.25;101676.41;5074984;28;45594;-73
2022/10/19 08:19:07;;;;;;;;;15.75;15.75;;;;;18.77;85.98;101680.84;5075355;28;45285;-73
2022/10/19 08:21:33;;;;;;;;;14.50;13.25;;;;;18.88;86.38;101679.09;5075731;28;45333;-74
2022/10/19 08:23:59;;;;;;;;;15.00;14.75;;;;;18.83;85.91;101655.16;5078158;28;45605;-73
2022/10/19 08:26:28;;;;;;;;;16.00;16.00;;;;;19.09;84.89;101665.75;5078576;28;45311;-73
2022/10/19 08:29:07;;;;;;;;;14.25;13.75;;;;;19.08;84.79;101645.94;5078796;28;45429;-73
2022/10/19 08:31:33;;;;;;;;;22.75;21.00;;;;;19.40;83.84;101665.94;5078493;28;45513;-73
2022/10/19 08:33:59;;;;;;;;;16.75;16.75;;;;;19.62;82.46;101656.91;5064139;28;46259;-73
2022/10/19 08:36:24;;;;;;;;;16.50;16.50;;;;;19.99;80.60;101659.25;5077877;28;45369;-72
2022/10/19 08:38:51;;;;;;;;;14.75;14.75;;;;;20.10;80.39;101652.94;5078220;28;45336;-73
2022/10/19 08:41:24;;;;;;;;;16.75;15.75;;;;;19.88;79.29;101600.59;5077402;28;45264;-73
2022/10/19 08:44:05;;;;;;;;;15.25;13.50;;;;;20.12;79.15;101640.09;5077852;28;46156;-73
2022/10/19 08:46:47;;;;;;;;;13.00;10.25;;;;;20.25;78.77;101635.34;5077144;28;45484;-73
2022/10/19 08:49:18;;;;;;;;;13.25;13.00;;;;;20.21;79.06;101644.72;5078276;28;45306;-73
2022/10/19 08:51:49;;;;;;;;;12.50;12.25;;;;;20.03;79.21;101630.94;5078005;28;45432;-73
2022/10/19 08:54:16;;;;;;;;;12.00;11.00;;;;;20.14;79.18;101638.97;5059225;28;45469;-71
2022/10/19 08:56:48;;;;;;;;;11.75;11.50;;;;;19.87;78.52;101554.69;5057251;28;45347;-73
2022/10/19 08:59:39;;;;;;;;;13.00;11.25;;;;;20.66;76.88;101644.44;5063567;28;45330;-73
2022/10/19 09:02:20;;;;;;;;;15.00;15.00;;;;;21.25;75.73;101646.53;5077586;27;45416;-73
2022/10/19 09:04:53;;;;;;;;;12.00;9.75;;;;;21.83;73.71;101633.03;5097788;27;46047;-72
2022/10/19 09:07:25;;;;;;;;;12.75;11.50;;;;;22.74;70.98;101648.06;5098529;27;45318;-73
2022/10/19 09:10:00;;;;;;;;;10.00;9.00;;;;;22.75;67.95;101598.06;5096836;27;45324;-72
2022/10/19 09:12:50;;;;;;;;;13.25;13.25;;;;;23.85;66.01;101634.31;5097696;27;45337;-72
2022/10/19 09:15:25;;;;;;;;;16.00;13.00;;;;;24.34;63.46;101638.47;5083843;27;45481;-72
2022/10/19 09:17:50;;;;;;;;;12.50;11.00;;;;;24.17;63.41;101618.41;5077389;27;45334;-73
2022/10/19 09:20:23;;;;;;;;;9.50;8.50;;;;;24.45;63.04;101618.28;5077867;27;45373;-73
2022/10/19 09:23:21;;;;;;;;;8.75;8.75;;;;;24.46;62.09;101603.63;5077957;27;45440;-73
2022/10/19 09:25:49;;;;;;;;;10.25;10.25;;;;;24.96;61.04;101615.66;5014691;28;45431;-73
2022/10/19 09:28:34;;;;;;;;;10.25;9.00;;;;;26.16;58.88;101616.19;5015307;28;45473;-73
2022/10/19 09:31:00;;;;;;;;;10.75;9.00;;;;;27.20;55.56;101609.88;5014816;28;45412;-73
2022/10/19 09:33:35;;;;;;;;;10.00;9.25;;;;;28.26;51.51;101579.91;5014851;28;45327;-73
2022/10/19 09:36:03;;;;;;;;;11.50;9.00;;;;;29.41;48.08;101602.34;5014188;28;46138;-73
2022/10/19 09:38:30;;;;;;;;;11.75;11.75;;;;;29.64;47.77;101604.03;5014600;28;45494;-73
2022/10/19 09:40:57;;;;;;;;;8.00;8.00;;;;;30.43;45.83;101607.66;5016026;28;45608;-73
2022/10/19 09:43:24;;;;;;;;;9.50;8.00;;;;;30.69;45.57;101599.56;5015831;28;45556;-74
2022/10/19 09:46:08;;;;;;;;;9.50;9.50;;;;;30.57;44.34;101548.03;5014934;28;47433;-73
2022/10/19 09:49:03;;;;;;;;;10.25;8.50;;;;;30.53;44.67;101613.66;4998213;28;45419;-73
2022/10/19 09:51:43;;;;;;;;;9.25;6.50;;;;;29.92;45.45;101601.34;5006365;28;45426;-73
2022/10/19 09:54:24;;;;;;;;;8.50;8.50;;;;;29.24;47.35;101592.63;5014623;28;45375;-73
2022/10/19 09:56:54;;;;;;;;;8.75;8.75;;;;;28.38;49.11;101588.53;5012751;28;46123;-73
2022/10/19 09:59:22;;;;;;;;;10.25;10.00;;;;;27.62;50.04;101529.13;5014242;28;45889;-74
2022/10/19 10:02:18;;;;;;;;;7.50;7.50;;;;;27.49;50.80;101584.56;5017093;28;45391;-74
2022/10/19 10:05:05;;;;;;;;;10.00;10.00;;;;;27.17;52.81;101591.06;5077527;27;45634;-74
2022/10/19 10:07:38;;;;;;;;;8.50;7.25;;;;;26.52;54.23;101500.88;5076832;27;46455;-74
2022/10/19 10:10:27;;;;;;;;;8.00;7.00;;;;;26.84;53.71;101570.19;5072719;28;45402;-74
2022/10/19 10:12:52;;;;;;;;;6.00;6.00;;;;;26.79;53.67;101561.69;5075040;28;45362;-74
2022/10/19 10:15:23;;;;;;;;;9.75;8.75;;;;;26.63;54.08;101575.38;5073197;27;45425;-69
2022/10/19 10:17:49;;;;;;;;;7.75;7.75;;;;;26.49;55.26;101588.78;5073416;27;46125;-72
2022/10/19 10:20:26;;;;;;;;;8.75;7.00;;;;;26.36;55.67;101563.88;5073543;27;45413;-70
2022/10/19 10:23:03;;;;;;;;;5.75;5.75;;;;;26.40;55.07;101567.97;5074713;27;45414;-72
2022/10/19 10:25:35;;;;;;;;;7.00;7.00;;;;;26.06;54.36;101555.38;5073392;27;45449;-71
2022/10/19 10:28:18;;;;;;;;;8.75;7.75;;;;;25.84;56.11;101556.91;5071558;27;46346;-70
2022/10/19 10:30:47;;;;;;;;;8.75;7.50;;;;;25.52;56.81;101540.38;5076905;27;45555;-73
2022/10/19 10:33:24;;;;;;;;;7.00;6.25;;;;;25.46;57.07;101559.31;5074265;28;45300;-69
2022/10/19 10:35:52;;;;;;;;;8.00;8.00;;;;;24.99;57.36;101506.16;5063984;27;45417;-69
2022/10/19 10:38:25;;;;;;;;;7.75;7.75;;;;;25.02;58.45;101530.38;5085392;27;45713;-68
2022/10/19 10:40:58;;;;;;;;;6.25;6.25;;;;;24.63;59.10;101503.66;5081451;27;45361;-70
2022/10/19 10:43:32;;;;;;;;;2.50;2.00;;;;;24.60;60.19;101529.38;5074075;27;45476;-70
2022/10/19 10:46:06;;;;;;;;;7.50;7.50;;;;;24.49;61.05;101538.69;5068111;27;45465;-70
2022/10/19 10:49:00;;;;;;;;;8.00;8.00;;;;;24.38;60.87;101538.16;5073999;27;45778;-69
2022/10/19 10:51:32;;;;;;;;;6.75;6.00;;;;;23.91;61.35;101480.31;5072006;27;45325;-68
2022/10/19 10:54:18;;;;;;;;;8.50;8.50;;;;;24.10;60.87;101524.69;5070333;27;45416;-68
2022/10/19 10:56:58;;;;;;;;;8.00;5.50;;;;;23.84;62.36;101520.91;5071947;28;45684;-73
2022/10/19 10:59:32;;;;;;;;;8.50;8.50;;;;;23.74;63.07;101509.28;5069478;28;45729;-72
2022/10/19 11:02:15;;;;;;;;;7.67;7.67;;;;;23.71;62.74;101519.63;5063773;28;45367;-72
2022/10/19 11:04:49;;;;;;;;;8.50;8.00;;;;;23.60;62.67;101498.97;5063127;28;45453;-72
2022/10/19 11:07:22;;;;;;;;;6.67;6.67;;;;;23.64;63.42;101508.53;5039874;28;45576;-71
2022/10/19 11:09:53;;;;;;;;;9.00;8.25;;;;;23.61;63.50;101509.69;5050968;28;45525;-72
2022/10/19 11:12:30;;;;;;;;;9.00;9.00;;;;;23.56;63.00;101479.34;5051813;28;45497;-73
2022/10/19 11:15:18;;;;;;;;;7.50;7.50;;;;;23.65;63.95;101486.56;5034272;28;45408;-71
2022/10/19 11:17:56;;;;;;;;;4.25;4.25;;;;;23.73;63.33;101487.63;5053101;28;45586;-71
2022/10/19 11:20:25;;;;;;;;;6.75;6.75;;;;;23.71;62.79;101487.81;5051418;28;46350;-72
2022/10/19 11:23:29;;;;;;;;;7.75;7.50;;;;;23.59;63.47;101443.66;5049135;28;45505;-72
2022/10/19 11:26:10;;;;;;;;;8.00;6.00;;;;;23.94;63.88;101465.50;5037615;28;45470;-71
2022/10/19 11:28:42;;;;;;;;;7.50;7.25;;;;;24.10;62.99;101460.13;5053231;28;45360;-73
2022/10/19 11:31:31;;;;;;;;;7.75;7.75;;;;;24.21;61.75;101444.53;5049531;28;45683;-72